createdAt,value
2023-01-19T00:02:02.709Z,66.10
2023-01-19T00:04:06.549Z,65.91
2023-01-19T00:06:10.049Z,66.14
2023-01-19T00:08:16.583Z,66.06
2023-01-19T00:10:20.999Z,66.18
2023-01-19T00:12:23.799Z,66.37
2023-01-19T00:14:26.948Z,66.22
2023-01-19T00:16:29.804Z,65.92
2023-01-19T00:18:32.654Z,65.85
2023-01-19T00:20:36.270Z,66.19
2023-01-19T00:22:39.052Z,66.46
2023-01-19T00:24:41.923Z,66.37
2023-01-19T00:26:46.225Z,66.47
2023-01-19T00:28:49.704Z,66.28
2023-01-19T00:30:53.019Z,66.83
2023-01-19T00:32:55.864Z,66.95
2023-01-19T00:34:58.776Z,67.06
2023-01-19T00:37:02.974Z,66.56
2023-01-19T00:39:05.767Z,66.78
2023-01-19T00:41:08.512Z,66.83
2023-01-19T00:43:11.677Z,66.73
2023-01-19T00:45:16.493Z,66.86
2023-01-19T00:47:19.257Z,66.81
2023-01-19T00:49:22.118Z,67.17
2023-01-19T00:51:25.319Z,67.58
2023-01-19T00:53:32.351Z,67.58
2023-01-19T00:55:35.527Z,67.78
2023-01-19T00:57:39.553Z,67.08
2023-01-19T00:59:43.710Z,67.70
2023-01-19T01:01:46.759Z,67.58
2023-01-19T01:03:49.680Z,67.77
2023-01-19T01:05:52.483Z,67.69
2023-01-19T01:07:55.286Z,67.65
2023-01-19T01:09:58.064Z,68.38
2023-01-19T01:12:00.890Z,68.42
2023-01-19T01:14:03.648Z,68.63
2023-01-19T01:16:09.749Z,68.16
2023-01-19T01:18:12.539Z,68.61
2023-01-19T01:20:17.803Z,68.26
2023-01-19T01:22:20.775Z,68.34
2023-01-19T01:24:23.587Z,67.98
2023-01-19T01:26:27.151Z,67.83
2023-01-19T01:28:30.584Z,67.97
2023-01-19T01:30:33.471Z,67.80
2023-01-19T01:32:37.574Z,67.73
2023-01-19T01:34:40.672Z,67.60
2023-01-19T01:36:44.198Z,67.61
2023-01-19T01:38:47.499Z,67.79
2023-01-19T01:40:50.371Z,68.01
2023-01-19T01:42:53.172Z,67.30
2023-01-19T01:44:57.646Z,68.03
2023-01-19T01:47:00.491Z,67.52
2023-01-19T01:49:08.967Z,67.48
2023-01-19T01:51:24.016Z,67.84
2023-01-19T01:53:27.845Z,67.90
2023-01-19T01:55:32.979Z,68.13
2023-01-19T01:57:36.766Z,67.93
2023-01-19T01:59:44.330Z,68.57
2023-01-19T02:02:16.330Z,68.60
2023-01-19T02:04:21.343Z,68.27
2023-01-19T02:06:24.616Z,68.49
2023-01-19T02:08:50.823Z,68.54
2023-01-19T02:11:12.959Z,68.31
2023-01-19T02:13:19.515Z,68.48
2023-01-19T02:15:22.426Z,69.08
2023-01-19T02:17:25.353Z,69.00
2023-01-19T02:19:34.870Z,68.40
2023-01-19T02:21:43.805Z,68.70
2023-01-19T02:23:50.399Z,68.52
2023-01-19T02:25:54.366Z,69.03
2023-01-19T02:27:57.985Z,68.57
2023-01-19T02:30:03.543Z,68.78
2023-01-19T02:32:06.839Z,69.10
2023-01-19T02:34:12.738Z,69.36
2023-01-19T02:36:17.647Z,69.33
2023-01-19T02:38:20.990Z,69.65
2023-01-19T02:40:27.947Z,69.89
2023-01-19T02:42:36.003Z,69.46
2023-01-19T02:44:40.597Z,69.55
2023-01-19T02:46:44.604Z,69.68
2023-01-19T02:48:47.394Z,69.84
2023-01-19T02:50:53.096Z,70.25
2023-01-19T02:53:07.304Z,69.47
2023-01-19T02:55:19.356Z,69.34
2023-01-19T02:57:43.641Z,69.87
2023-01-19T03:00:07.868Z,69.52
2023-01-19T03:02:22.711Z,70.25
2023-01-19T03:04:34.557Z,70.46
2023-01-19T03:06:47.573Z,70.96
2023-01-19T03:08:56.244Z,70.45
2023-01-19T03:11:03.409Z,71.15
2023-01-19T03:13:12.658Z,71.05
2023-01-19T03:15:20.225Z,70.72
2023-01-19T03:17:23.440Z,70.48
2023-01-19T03:19:29.747Z,70.38
2023-01-19T03:21:37.075Z,70.29
2023-01-19T03:23:43.053Z,69.79
2023-01-19T03:25:48.287Z,70.36
2023-01-19T03:27:54.949Z,70.70
2023-01-19T03:30:02.543Z,70.88
2023-01-19T03:32:10.414Z,70.16
2023-01-19T03:34:16.133Z,70.25
2023-01-19T03:36:22.419Z,70.38
2023-01-19T03:38:28.299Z,69.95
2023-01-19T03:40:33.679Z,70.46
2023-01-19T03:42:37.839Z,69.97
2023-01-19T03:44:42.614Z,69.63
2023-01-19T03:46:48.737Z,70.41
2023-01-19T03:48:52.135Z,70.48
2023-01-19T03:50:56.519Z,70.76
2023-01-19T03:53:06.153Z,70.99
2023-01-19T03:55:09.966Z,71.10
2023-01-19T03:57:12.839Z,70.67
2023-01-19T03:59:17.425Z,70.70
2023-01-19T04:01:22.748Z,70.45
2023-01-19T04:03:27.077Z,70.85
2023-01-19T04:05:30.324Z,70.56
2023-01-19T04:07:33.211Z,70.52
2023-01-19T04:09:36.051Z,70.45
2023-01-19T04:11:38.812Z,70.92
2023-01-19T04:13:41.637Z,70.72
2023-01-19T04:15:44.479Z,70.48
2023-01-19T04:17:47.263Z,70.96
2023-01-19T04:19:51.360Z,70.91
2023-01-19T04:21:55.273Z,71.17
2023-01-19T04:23:58.996Z,71.10
2023-01-19T04:26:04.081Z,71.44
2023-01-19T04:28:06.845Z,70.81
2023-01-19T04:30:11.008Z,71.08
2023-01-19T04:32:14.679Z,71.05
2023-01-19T04:34:17.665Z,71.17
2023-01-19T04:36:24.750Z,71.57
2023-01-19T04:38:27.785Z,71.25
2023-01-19T04:40:30.655Z,71.28
2023-01-19T04:42:33.449Z,70.50
2023-01-19T04:44:36.207Z,70.75
2023-01-19T04:46:39.074Z,70.74
2023-01-19T04:48:42.312Z,70.45
2023-01-19T04:50:45.237Z,70.75
2023-01-19T04:52:49.458Z,71.00
2023-01-19T04:54:52.777Z,70.53
2023-01-19T04:56:55.534Z,70.97
2023-01-19T04:58:58.359Z,70.54
2023-01-19T05:01:01.422Z,70.56
2023-01-19T05:03:04.934Z,70.67
2023-01-19T05:05:08.610Z,70.92
2023-01-19T05:07:11.481Z,70.70
2023-01-19T05:09:15.761Z,70.59
2023-01-19T05:11:18.646Z,70.89
2023-01-19T05:13:21.442Z,70.90
2023-01-19T05:15:24.390Z,71.12
2023-01-19T05:17:27.132Z,70.67
2023-01-19T05:19:30.056Z,70.78
2023-01-19T05:21:32.917Z,70.71
2023-01-19T05:23:35.992Z,70.71
2023-01-19T05:25:40.134Z,70.93
2023-01-19T05:27:42.904Z,70.88
2023-01-19T05:29:45.730Z,70.74
2023-01-19T05:31:49.061Z,71.25
2023-01-19T05:33:51.927Z,70.92
2023-01-19T05:35:55.875Z,71.40
2023-01-19T05:37:58.707Z,71.54
2023-01-19T05:40:01.536Z,71.25
2023-01-19T05:42:06.204Z,71.29
2023-01-19T05:44:10.321Z,70.83
2023-01-19T05:46:13.151Z,71.73
2023-01-19T05:48:16.020Z,71.08
2023-01-19T05:50:18.971Z,71.07
2023-01-19T05:52:21.875Z,71.48
2023-01-19T05:54:24.705Z,70.82
2023-01-19T05:56:28.337Z,71.81
2023-01-19T05:58:34.345Z,71.65
2023-01-19T06:00:37.263Z,71.56
2023-01-19T06:02:40.115Z,71.92
2023-01-19T06:04:42.859Z,71.45
2023-01-19T06:06:45.683Z,71.70
2023-01-19T06:08:48.588Z,72.21
2023-01-19T06:10:51.398Z,71.52
2023-01-19T06:12:54.593Z,72.09
2023-01-19T06:14:58.886Z,71.62
2023-01-19T06:17:01.739Z,74.42
2023-01-19T06:19:04.813Z,77.60
2023-01-19T06:21:10.422Z,76.75
2023-01-19T06:23:13.369Z,72.88
2023-01-19T06:25:16.296Z,70.17
2023-01-19T06:27:19.127Z,69.91
2023-01-19T06:29:23.148Z,69.98
2023-01-19T06:31:27.490Z,70.60
2023-01-19T06:33:30.527Z,70.81
2023-01-19T06:35:33.334Z,70.86
2023-01-19T06:37:36.371Z,70.93
2023-01-19T06:39:40.983Z,70.88
2023-01-19T06:41:43.881Z,71.40
2023-01-19T06:43:46.781Z,71.33
2023-01-19T06:45:50.164Z,71.98
2023-01-19T06:47:54.515Z,71.59
2023-01-19T06:49:57.507Z,72.12
2023-01-19T06:52:26.094Z,71.40
2023-01-19T06:54:28.853Z,71.69
2023-01-19T06:56:31.734Z,72.02
2023-01-19T06:58:34.940Z,72.36
2023-01-19T07:00:38.016Z,71.83
2023-01-19T07:02:43.490Z,71.61
2023-01-19T07:04:47.758Z,71.66
2023-01-19T07:06:51.164Z,71.39
2023-01-19T07:08:54.961Z,71.17
2023-01-19T07:11:22.390Z,71.39
2023-01-19T07:13:23.901Z,71.79
2023-01-19T07:15:26.861Z,71.80
2023-01-19T07:17:29.601Z,71.24
2023-01-19T07:19:34.920Z,71.84
2023-01-19T07:21:39.085Z,71.83
2023-01-19T07:23:43.270Z,71.65
2023-01-19T07:25:46.668Z,72.20
2023-01-19T07:27:49.522Z,71.81
2023-01-19T07:29:52.374Z,71.93
2023-01-19T07:31:55.359Z,71.82
2023-01-19T07:33:58.134Z,71.95
2023-01-19T07:36:00.924Z,72.04
2023-01-19T07:38:05.588Z,71.45
2023-01-19T07:40:09.733Z,71.68
2023-01-19T07:42:12.594Z,72.09
2023-01-19T07:44:15.446Z,71.95
2023-01-19T07:46:18.259Z,71.98
2023-01-19T07:48:21.000Z,71.83
2023-01-19T07:50:26.008Z,71.97
2023-01-19T07:52:28.632Z,71.95
2023-01-19T07:54:32.794Z,72.57
2023-01-19T07:56:35.528Z,72.07
2023-01-19T07:58:38.362Z,71.97
2023-01-19T08:00:41.249Z,72.15
2023-01-19T08:02:43.989Z,72.35
2023-01-19T08:04:48.910Z,72.04
2023-01-19T08:06:51.574Z,72.22
2023-01-19T08:08:54.397Z,72.17
2023-01-19T08:10:59.173Z,72.14
2023-01-19T08:13:02.458Z,72.29
2023-01-19T08:15:07.070Z,72.37
2023-01-19T08:17:13.536Z,71.97
2023-01-19T08:19:16.296Z,72.16
2023-01-19T08:21:19.080Z,72.03
2023-01-19T08:23:21.914Z,71.93
2023-01-19T08:25:24.876Z,72.15
2023-01-19T08:27:28.970Z,72.00
2023-01-19T08:29:32.350Z,72.07
2023-01-19T08:31:35.280Z,72.02
2023-01-19T08:33:38.398Z,72.00
2023-01-19T08:35:43.726Z,72.18
2023-01-19T08:37:46.600Z,72.09
2023-01-19T08:39:53.540Z,71.97
2023-01-19T08:41:56.819Z,72.55
2023-01-19T08:44:00.940Z,72.28
2023-01-19T08:46:03.803Z,72.02
2023-01-19T08:48:07.219Z,71.88
2023-01-19T08:50:11.847Z,71.87
2023-01-19T08:52:14.624Z,71.58
2023-01-19T08:54:18.747Z,71.72
2023-01-19T08:56:21.673Z,71.62
2023-01-19T08:58:24.743Z,71.59
2023-01-19T09:00:31.433Z,72.02
2023-01-19T09:02:34.996Z,71.12
2023-01-19T09:04:38.000Z,71.64
2023-01-19T09:06:40.791Z,71.07
2023-01-19T09:08:43.699Z,71.46
2023-01-19T09:10:47.986Z,71.49
2023-01-19T09:12:50.793Z,71.44
2023-01-19T09:14:53.767Z,71.13
2023-01-19T09:16:59.085Z,71.06
2023-01-19T09:19:01.958Z,70.97
2023-01-19T09:21:05.271Z,71.09
2023-01-19T09:23:08.299Z,71.47
2023-01-19T09:25:11.448Z,71.59
2023-01-19T09:27:14.316Z,71.42
2023-01-19T09:29:17.182Z,71.50
2023-01-19T09:31:20.184Z,72.00
2023-01-19T09:33:25.605Z,71.17
2023-01-19T09:35:28.402Z,71.79
2023-01-19T09:37:31.176Z,70.87
2023-01-19T09:39:33.925Z,71.00
2023-01-19T09:41:38.512Z,70.77
2023-01-19T09:43:44.684Z,70.89
2023-01-19T09:45:52.963Z,71.22
2023-01-19T09:47:58.342Z,70.86
2023-01-19T09:50:06.658Z,70.35
2023-01-19T09:52:11.762Z,70.81
2023-01-19T09:54:16.827Z,70.73
2023-01-19T09:56:21.143Z,70.26
2023-01-19T09:58:24.590Z,70.60
2023-01-19T10:00:31.248Z,70.69
2023-01-19T10:02:37.980Z,70.35
2023-01-19T10:04:42.792Z,70.44
2023-01-19T10:06:53.524Z,70.22
2023-01-19T10:09:07.195Z,70.30
2023-01-19T10:11:22.785Z,70.39
2023-01-19T10:13:33.004Z,69.82
2023-01-19T10:15:46.792Z,69.71
2023-01-19T10:18:01.395Z,69.91
2023-01-19T10:20:12.174Z,70.08
2023-01-19T10:22:22.110Z,69.53
2023-01-19T10:24:29.126Z,69.75
2023-01-19T10:26:34.594Z,69.63
2023-01-19T10:28:39.574Z,69.52
2023-01-19T10:30:43.586Z,69.13
2023-01-19T10:32:46.668Z,69.05
2023-01-19T10:34:50.716Z,69.11
2023-01-19T10:37:01.142Z,69.23
2023-01-19T10:39:06.948Z,69.54
2023-01-19T10:41:15.638Z,69.21
2023-01-19T10:43:38.844Z,69.68
2023-01-19T10:45:41.742Z,69.67
2023-01-19T10:47:46.814Z,69.70
2023-01-19T10:49:50.420Z,68.97
2023-01-19T10:51:53.828Z,68.80
2023-01-19T10:53:59.636Z,68.67
2023-01-19T10:56:18.395Z,68.37
2023-01-19T10:58:30.761Z,68.24
2023-01-19T11:00:37.641Z,68.35
2023-01-19T11:02:51.675Z,68.20
2023-01-19T11:04:56.742Z,67.88
2023-01-19T11:07:15.206Z,68.12
2023-01-19T11:09:19.983Z,68.71
2023-01-19T11:11:25.598Z,68.58
2023-01-19T11:13:28.391Z,67.73
2023-01-19T11:15:34.766Z,68.12
2023-01-19T11:17:37.971Z,67.80
2023-01-19T11:19:40.840Z,67.74
2023-01-19T11:21:43.704Z,67.84
2023-01-19T11:23:50.939Z,67.50
2023-01-19T11:25:55.952Z,67.14
2023-01-19T11:28:01.478Z,67.25
2023-01-19T11:30:10.526Z,67.90
2023-01-19T11:32:22.399Z,67.74
2023-01-19T11:34:32.345Z,67.63
2023-01-19T11:36:37.173Z,68.01
2023-01-19T11:38:44.701Z,67.77
2023-01-19T11:41:41.931Z,68.16
2023-01-19T11:43:49.360Z,68.21
2023-01-19T11:45:52.707Z,68.19
2023-01-19T11:47:56.974Z,67.94
2023-01-19T11:50:04.035Z,67.99
2023-01-19T11:52:14.560Z,67.99
2023-01-19T11:54:23.614Z,67.89
2023-01-19T11:56:29.653Z,67.58
2023-01-19T11:58:34.172Z,67.30
2023-01-19T12:00:44.448Z,67.38
2023-01-19T12:02:51.607Z,67.40
2023-01-19T12:04:58.886Z,67.44
2023-01-19T12:07:07.455Z,67.32
2023-01-19T12:09:19.025Z,66.78
2023-01-19T12:11:27.245Z,66.67
2023-01-19T12:13:32.078Z,67.71
2023-01-19T12:15:42.874Z,67.78
2023-01-19T12:17:49.904Z,67.11
2023-01-19T12:20:00.239Z,67.07
2023-01-19T12:22:05.123Z,66.94
2023-01-19T12:24:17.042Z,67.31
2023-01-19T12:26:28.842Z,67.38
2023-01-19T12:28:35.761Z,66.98
2023-01-19T12:30:40.203Z,67.28
2023-01-19T12:32:43.311Z,67.11
2023-01-19T12:34:47.490Z,67.11
2023-01-19T12:36:50.531Z,66.84
2023-01-19T12:38:55.101Z,66.61
2023-01-19T12:41:24.155Z,67.28
2023-01-19T12:43:27.370Z,67.43
2023-01-19T12:45:33.979Z,66.72
2023-01-19T12:47:39.343Z,66.39
2023-01-19T12:49:45.110Z,66.79
2023-01-19T12:51:49.036Z,66.68
2023-01-19T12:53:54.155Z,66.33
2023-01-19T12:56:02.293Z,66.30
2023-01-19T12:58:08.196Z,66.01
2023-01-19T13:00:31.486Z,66.43
2023-01-19T13:02:54.789Z,66.50
2023-01-19T13:05:16.806Z,66.05
2023-01-19T13:07:20.257Z,66.63
2023-01-19T13:09:30.240Z,66.82
2023-01-19T13:11:34.669Z,65.94
2023-01-19T13:13:38.826Z,66.05
2023-01-19T13:15:42.585Z,66.24
2023-01-19T13:17:50.602Z,65.82
2023-01-19T13:20:05.029Z,65.54
2023-01-19T13:22:50.828Z,66.10
2023-01-19T13:25:08.658Z,65.49
2023-01-19T13:27:13.741Z,64.90
2023-01-19T13:29:22.063Z,64.95
2023-01-19T13:31:27.277Z,64.57
2023-01-19T13:33:41.071Z,65.18
2023-01-19T13:36:23.695Z,65.17
2023-01-19T13:38:28.173Z,65.27
2023-01-19T13:40:38.152Z,65.04
2023-01-19T13:42:43.762Z,64.41
2023-01-19T13:44:52.253Z,64.74
2023-01-19T13:46:59.431Z,64.91
2023-01-19T13:49:05.760Z,65.09
2023-01-19T13:51:19.183Z,65.58
2023-01-19T13:53:24.277Z,65.08
2023-01-19T13:55:28.016Z,65.19
2023-01-19T13:57:32.653Z,65.39
2023-01-19T13:59:35.588Z,65.32
2023-01-19T14:01:40.991Z,65.05
2023-01-19T14:03:46.646Z,65.11
2023-01-19T14:05:52.611Z,64.79
2023-01-19T14:08:03.477Z,64.79
2023-01-19T14:10:12.900Z,65.69
2023-01-19T14:12:18.502Z,65.48
2023-01-19T14:14:26.146Z,65.41
2023-01-19T14:16:29.010Z,65.67
2023-01-19T14:18:32.976Z,65.34
2023-01-19T14:20:36.993Z,64.90
2023-01-19T14:22:41.823Z,65.15
2023-01-19T14:24:44.769Z,65.46
2023-01-19T14:26:51.309Z,65.63
2023-01-19T14:28:54.264Z,65.17
2023-01-19T14:30:58.680Z,65.18
2023-01-19T14:33:01.549Z,65.44
2023-01-19T14:35:16.180Z,65.22
2023-01-19T14:37:25.315Z,66.08
2023-01-19T14:39:30.641Z,65.31
2023-01-19T14:41:38.614Z,65.43
2023-01-19T14:43:46.497Z,65.59
2023-01-19T14:45:49.429Z,65.66
2023-01-19T14:47:58.024Z,65.97
2023-01-19T14:50:07.444Z,65.81
2023-01-19T14:52:22.375Z,65.89
2023-01-19T14:54:32.432Z,66.13
2023-01-19T14:56:35.650Z,66.11
2023-01-19T14:58:38.479Z,66.01
2023-01-19T15:00:46.774Z,66.50
2023-01-19T15:02:49.913Z,66.37
2023-01-19T15:04:55.218Z,66.28
2023-01-19T15:06:58.200Z,66.50
2023-01-19T15:09:01.072Z,65.72
2023-01-19T15:11:10.436Z,65.86
2023-01-19T15:13:18.471Z,65.68
2023-01-19T15:15:25.807Z,65.95
2023-01-19T15:17:29.993Z,65.18
2023-01-19T15:19:32.790Z,65.56
2023-01-19T15:21:35.738Z,65.52
2023-01-19T15:23:38.548Z,66.25
2023-01-19T15:25:41.488Z,65.57
2023-01-19T15:27:46.168Z,65.92
2023-01-19T15:29:48.982Z,65.95
2023-01-19T15:31:52.489Z,66.60
2023-01-19T15:33:57.306Z,65.41
2023-01-19T15:36:00.123Z,65.99
2023-01-19T15:38:02.963Z,66.01
2023-01-19T15:40:07.038Z,66.22
2023-01-19T15:42:12.934Z,66.17
2023-01-19T15:44:15.716Z,66.52
2023-01-19T15:46:20.625Z,66.08
2023-01-19T15:48:23.284Z,66.55
2023-01-19T15:50:27.983Z,66.61
2023-01-19T15:52:30.748Z,66.00
2023-01-19T15:54:33.716Z,66.16
2023-01-19T15:56:36.567Z,66.16
2023-01-19T15:58:39.397Z,65.88
2023-01-19T16:00:42.708Z,65.86
2023-01-19T16:02:45.657Z,65.46
2023-01-19T16:04:49.579Z,65.66
2023-01-19T16:06:53.719Z,65.76
2023-01-19T16:08:59.690Z,66.03
2023-01-19T16:11:05.705Z,66.09
2023-01-19T16:13:08.768Z,65.82
2023-01-19T16:15:12.721Z,66.98
2023-01-19T16:17:15.494Z,66.85
2023-01-19T16:19:19.089Z,66.79
2023-01-19T16:21:22.106Z,67.25
2023-01-19T16:23:26.574Z,67.54
2023-01-19T16:25:30.947Z,67.85
2023-01-19T16:27:33.777Z,67.99
2023-01-19T16:29:36.581Z,68.70
2023-01-19T16:31:40.325Z,68.82
2023-01-19T16:33:43.217Z,68.52
2023-01-19T16:35:46.179Z,68.14
2023-01-19T16:37:51.529Z,68.43
2023-01-19T16:39:55.821Z,69.33
2023-01-19T16:41:58.683Z,69.63
2023-01-19T16:44:01.813Z,70.11
2023-01-19T16:46:04.916Z,69.87
2023-01-19T16:48:08.115Z,70.14
2023-01-19T16:50:12.552Z,70.46
2023-01-19T16:52:15.660Z,71.17
2023-01-19T16:54:20.916Z,71.10
2023-01-19T16:56:25.007Z,71.33
2023-01-19T16:58:28.280Z,71.55
2023-01-19T17:00:31.116Z,71.34
2023-01-19T17:02:34.184Z,72.48
2023-01-19T17:04:38.095Z,72.69
2023-01-19T17:06:41.338Z,73.00
2023-01-19T17:08:44.191Z,72.64
2023-01-19T17:10:47.106Z,72.91
2023-01-19T17:12:51.402Z,73.04
2023-01-19T17:14:54.208Z,73.25
2023-01-19T17:16:57.161Z,73.20
2023-01-19T17:19:01.568Z,73.89
2023-01-19T17:21:06.246Z,73.55
2023-01-19T17:23:09.006Z,73.68
2023-01-19T17:25:11.820Z,74.11
2023-01-19T17:27:14.614Z,73.11
2023-01-19T17:29:19.356Z,73.37
2023-01-19T17:31:23.123Z,73.52
2023-01-19T17:33:26.028Z,73.37
2023-01-19T17:35:28.824Z,73.45
2023-01-19T17:37:31.711Z,73.82
2023-01-19T17:39:35.068Z,73.63
2023-01-19T17:41:38.145Z,73.90
2023-01-19T17:43:40.980Z,73.65
2023-01-19T17:45:45.264Z,73.63
2023-01-19T17:47:49.308Z,73.71
2023-01-19T17:49:52.110Z,73.14
2023-01-19T17:51:55.806Z,74.03
2023-01-19T17:53:59.547Z,73.71
2023-01-19T17:56:05.410Z,74.06
2023-01-19T17:58:08.269Z,74.23
2023-01-19T18:00:12.399Z,74.04
2023-01-19T18:02:18.004Z,73.82
2023-01-19T18:04:20.890Z,73.76
2023-01-19T18:06:24.085Z,74.37
2023-01-19T18:08:26.957Z,74.66
2023-01-19T18:10:29.715Z,73.92
2023-01-19T18:12:32.679Z,74.21
2023-01-19T18:14:35.484Z,74.25
2023-01-19T18:16:38.230Z,73.73
2023-01-19T18:18:43.997Z,73.71
2023-01-19T18:20:46.820Z,72.90
2023-01-19T18:22:49.567Z,73.55
2023-01-19T18:24:52.571Z,73.57
2023-01-19T18:26:55.838Z,73.88
2023-01-19T18:28:59.049Z,74.00
2023-01-19T18:31:02.436Z,73.93
2023-01-19T18:33:06.175Z,73.69
2023-01-19T18:35:10.933Z,73.41
2023-01-19T18:37:13.718Z,73.81
2023-01-19T18:39:16.546Z,73.95
2023-01-19T18:41:21.284Z,73.43
2023-01-19T18:43:24.061Z,72.89
2023-01-19T18:45:26.888Z,73.00
2023-01-19T18:47:29.922Z,72.52
2023-01-19T18:49:32.783Z,72.68
2023-01-19T18:51:37.538Z,72.38
2023-01-19T18:53:40.692Z,72.71
2023-01-19T18:55:52.116Z,73.17
2023-01-19T18:57:55.287Z,73.00
2023-01-19T18:59:58.044Z,73.26
2023-01-19T19:02:01.463Z,73.08
2023-01-19T19:04:04.377Z,73.03
2023-01-19T19:06:07.604Z,72.39
2023-01-19T19:08:12.027Z,72.48
2023-01-19T19:10:15.427Z,72.90
2023-01-19T19:12:18.333Z,72.45
2023-01-19T19:14:21.156Z,72.13
2023-01-19T19:16:24.720Z,72.10
2023-01-19T19:18:27.513Z,72.42
2023-01-19T19:20:30.333Z,72.08
2023-01-19T19:22:33.120Z,71.73
2023-01-19T19:24:37.364Z,71.59
2023-01-19T19:26:41.720Z,71.91
2023-01-19T19:28:45.648Z,71.11
2023-01-19T19:30:52.393Z,71.14
2023-01-19T19:32:56.637Z,71.77
2023-01-19T19:34:59.460Z,71.75
2023-01-19T19:37:02.428Z,71.12
2023-01-19T19:39:05.595Z,71.89
2023-01-19T19:41:12.458Z,71.63
2023-01-19T19:43:15.330Z,70.95
2023-01-19T19:45:19.352Z,71.50
2023-01-19T19:47:22.145Z,71.29
2023-01-19T19:49:26.240Z,71.05
2023-01-19T19:51:29.226Z,70.44
2023-01-19T19:53:32.137Z,70.46
2023-01-19T19:55:34.917Z,70.42
2023-01-19T19:57:39.288Z,71.18
2023-01-19T19:59:42.180Z,70.85
2023-01-19T20:01:47.010Z,70.83
2023-01-19T20:03:50.698Z,71.75
2023-01-19T20:05:53.731Z,71.77
2023-01-19T20:07:56.651Z,71.12
2023-01-19T20:09:59.639Z,72.05
2023-01-19T20:12:02.423Z,70.92
2023-01-19T20:14:08.033Z,71.65
2023-01-19T20:16:12.695Z,71.86
2023-01-19T20:18:15.604Z,72.18
2023-01-19T20:20:18.729Z,72.33
2023-01-19T20:22:21.501Z,71.93
2023-01-19T20:24:24.253Z,72.07
2023-01-19T20:26:29.265Z,71.79
2023-01-19T20:28:32.109Z,72.63
2023-01-19T20:30:36.379Z,72.28
2023-01-19T20:32:40.136Z,72.60
2023-01-19T20:34:43.224Z,72.33
2023-01-19T20:36:49.607Z,71.96
2023-01-19T20:38:53.860Z,72.00
2023-01-19T20:40:56.870Z,72.44
2023-01-19T20:42:59.710Z,72.38
2023-01-19T20:45:02.505Z,71.99
2023-01-19T20:47:06.889Z,72.60
2023-01-19T20:49:10.097Z,72.88
2023-01-19T20:51:14.103Z,72.16
2023-01-19T20:53:17.402Z,72.03
2023-01-19T20:55:20.252Z,71.77
2023-01-19T20:57:23.105Z,72.52
2023-01-19T20:59:25.949Z,72.07
2023-01-19T21:01:28.901Z,72.83
2023-01-19T21:03:48.971Z,72.35
2023-01-19T21:05:51.772Z,72.38
2023-01-19T21:07:54.583Z,72.43
2023-01-19T21:09:57.537Z,72.68
2023-01-19T21:12:00.319Z,72.57
2023-01-19T21:14:03.140Z,72.74
2023-01-19T21:16:06.645Z,72.75
2023-01-19T21:18:09.447Z,72.68
2023-01-19T21:20:14.293Z,72.88
2023-01-19T21:22:17.060Z,73.31
2023-01-19T21:24:19.891Z,73.45
2023-01-19T21:26:22.774Z,73.38
2023-01-19T21:28:26.272Z,72.92
2023-01-19T21:30:29.581Z,72.65
2023-01-19T21:32:32.431Z,72.05
2023-01-19T21:34:35.411Z,72.65
2023-01-19T21:36:39.513Z,72.76
2023-01-19T21:38:42.289Z,72.51
2023-01-19T21:40:45.121Z,72.24
2023-01-19T21:42:47.901Z,72.76
2023-01-19T21:44:50.821Z,72.24
2023-01-19T21:46:55.377Z,72.66
2023-01-19T21:48:58.488Z,72.67
2023-01-19T21:51:01.306Z,72.39
2023-01-19T21:53:07.732Z,72.31
2023-01-19T21:55:11.116Z,72.13
2023-01-19T21:57:15.172Z,72.38
2023-01-19T21:59:20.233Z,72.09
2023-01-19T22:01:24.179Z,72.60
2023-01-19T22:03:27.288Z,72.16
2023-01-19T22:05:30.079Z,71.95
2023-01-19T22:07:33.107Z,71.93
2023-01-19T22:09:37.744Z,72.05
2023-01-19T22:11:40.587Z,71.66
2023-01-19T22:13:43.472Z,71.59
2023-01-19T22:15:46.240Z,72.00
2023-01-19T22:17:49.055Z,71.36
2023-01-19T22:19:51.903Z,71.91
2023-01-19T22:21:54.688Z,72.10
2023-01-19T22:23:59.924Z,71.34
2023-01-19T22:26:04.303Z,71.67
2023-01-19T22:28:07.072Z,71.32
2023-01-19T22:30:10.674Z,71.42
2023-01-19T22:32:13.443Z,71.80
2023-01-19T22:34:17.100Z,71.39
2023-01-19T22:36:21.688Z,71.25
2023-01-19T22:38:24.521Z,71.28
2023-01-19T22:40:27.302Z,70.79
2023-01-19T22:42:31.658Z,70.77
2023-01-19T22:44:34.502Z,69.80
2023-01-19T22:46:38.367Z,70.00
2023-01-19T22:48:41.486Z,70.61
2023-01-19T22:50:44.281Z,70.27
2023-01-19T22:52:47.119Z,70.83
2023-01-19T22:54:49.853Z,70.65
2023-01-19T22:56:52.668Z,70.97
2023-01-19T22:58:58.002Z,70.61
2023-01-19T23:01:05.998Z,70.59
2023-01-19T23:03:08.970Z,70.24
2023-01-19T23:05:12.456Z,70.58
2023-01-19T23:07:15.506Z,70.04
2023-01-19T23:09:18.886Z,70.32
2023-01-19T23:11:24.307Z,69.75
2023-01-19T23:13:27.088Z,70.29
2023-01-19T23:15:33.908Z,69.91
2023-01-19T23:17:36.732Z,70.36
2023-01-19T23:19:39.494Z,70.04
2023-01-19T23:21:42.375Z,70.08
2023-01-19T23:23:46.280Z,70.43
2023-01-19T23:25:49.116Z,70.10
2023-01-19T23:27:51.926Z,70.85
2023-01-19T23:29:54.724Z,70.60
2023-01-19T23:31:58.877Z,70.64
2023-01-19T23:34:03.658Z,70.78
2023-01-19T23:36:07.245Z,71.15
2023-01-19T23:38:10.049Z,71.10
2023-01-19T23:40:13.468Z,71.24
2023-01-19T23:42:16.210Z,70.64
2023-01-19T23:44:19.116Z,70.76
2023-01-19T23:46:22.783Z,70.89
2023-01-19T23:48:27.089Z,71.13
2023-01-19T23:50:29.830Z,71.54
2023-01-19T23:52:33.032Z,70.95
2023-01-19T23:54:36.495Z,71.14
2023-01-19T23:56:39.711Z,71.10
2023-01-19T23:58:42.803Z,71.37
